Time;durP1;ratioP1;P1;durP2;ratioP2;P2;SDS_P1;SDS_P2;PMS_P1;PMS_P2;Temp;Humidity;BMP_temperature;BMP_pressure;BME280_temperature;BME280_humidity;BME280_pressure;Samples;Min_cycle;Max_cycle;Signal;HPM_P1;HPM_P2
2023/10/06 00:00:40;;;;;;;6.07;2.50;;;;;;;;;;5062677;28;20100;-53
2023/10/06 00:03:06;;;;;;;5.47;2.83;;;;;;;;;;5048212;28;20132;-51
2023/10/06 00:05:34;;;;;;;3.30;2.22;;;;;;;;;;5044072;28;20032;-50
2023/10/06 00:08:00;;;;;;;5.05;2.33;;;;;;;;;;5064739;28;20051;-51
2023/10/06 00:10:30;;;;;;;3.97;2.78;;;;;;;;;;5056774;28;20120;-49
2023/10/06 00:12:59;;;;;;;5.13;2.45;;;;;;;;;;5057267;28;20132;-46
2023/10/06 00:15:39;;;;;;;4.03;2.33;;;;;;;;;;5054653;28;20471;-53
2023/10/06 00:18:16;;;;;;;4.95;2.53;;;;;;;;;;5056864;28;20122;-50
2023/10/06 00:20:48;;;;;;;4.93;3.13;;;;;;;;;;5063198;28;20090;-50
2023/10/06 00:23:14;;;;;;;5.25;2.95;;;;;;;;;;5055298;28;20045;-51
2023/10/06 00:25:42;;;;;;;4.57;2.20;;;;;;;;;;5058954;28;20147;-50
2023/10/06 00:28:19;;;;;;;4.22;3.00;;;;;;;;;;5051013;28;20057;-49
2023/10/06 00:30:49;;;;;;;7.13;3.90;;;;;;;;;;5058786;28;20021;-48
2023/10/06 00:33:15;;;;;;;5.72;3.35;;;;;;;;;;5037055;28;20036;-48
2023/10/06 00:35:41;;;;;;;6.85;3.20;;;;;;;;;;5059890;28;20024;-49
2023/10/06 00:38:16;;;;;;;3.97;3.47;;;;;;;;;;5062871;28;20041;-47
2023/10/06 00:40:46;;;;;;;4.53;2.42;;;;;;;;;;5050531;28;20039;-50
2023/10/06 00:43:16;;;;;;;4.88;3.28;;;;;;;;;;5053401;28;20506;-50
2023/10/06 00:45:47;;;;;;;8.40;3.20;;;;;;;;;;5057465;28;20028;-52
2023/10/06 00:48:15;;;;;;;4.88;4.18;;;;;;;;;;5047038;28;20472;-49
2023/10/06 00:50:42;;;;;;;6.53;3.42;;;;;;;;;;5062039;28;20040;-48
2023/10/06 00:53:10;;;;;;;3.92;2.67;;;;;;;;;;5054603;28;20068;-48
2023/10/06 00:55:37;;;;;;;4.65;2.95;;;;;;;;;;5056788;28;20033;-51
2023/10/06 00:58:04;;;;;;;5.57;2.85;;;;;;;;;;5065684;28;20037;-48
2023/10/06 01:00:31;;;;;;;4.82;2.85;;;;;;;;;;5054338;28;20033;-47
2023/10/06 01:02:57;;;;;;;5.00;3.25;;;;;;;;;;5058725;28;20041;-47
2023/10/06 01:05:25;;;;;;;3.97;3.25;;;;;;;;;;5056879;28;20426;-51
2023/10/06 01:07:50;;;;;;;4.82;2.60;;;;;;;;;;5065264;28;20033;-51
2023/10/06 01:10:27;;;;;;;5.55;3.30;;;;;;;;;;5053589;28;20390;-46
2023/10/06 01:12:54;;;;;;;5.63;4.10;;;;;;;;;;5053425;28;20045;-48
2023/10/06 01:15:20;;;;;;;4.45;3.58;;;;;;;;;;5056168;28;20037;-48
2023/10/06 01:17:47;;;;;;;2.78;2.33;;;;;;;;;;5057612;28;20544;-49
2023/10/06 01:23:21;;;;;;;4.32;2.67;;;;;;;;;;4984787;28;20039;-49
2023/10/06 01:25:59;;;;;;;4.72;2.35;;;;;;;;;;5047645;28;20049;-47
2023/10/06 01:28:25;;;;;;;6.20;2.97;;;;;;;;;;5057928;28;20059;-49
2023/10/06 01:30:51;;;;;;;6.07;3.00;;;;;;;;;;5059134;28;20436;-50
2023/10/06 01:33:17;;;;;;;4.38;2.63;;;;;;;;;;5063974;28;20383;-47
2023/10/06 01:35:43;;;;;;;6.85;3.35;;;;;;;;;;5055467;28;20362;-51
2023/10/06 01:38:19;;;;;;;3.90;2.42;;;;;;;;;;5059742;28;20056;-50
2023/10/06 01:40:50;;;;;;;4.65;2.67;;;;;;;;;;5059690;28;20056;-50
2023/10/06 01:43:22;;;;;;;6.82;2.88;;;;;;;;;;5057654;28;20087;-47
2023/10/06 01:45:51;;;;;;;6.15;2.80;;;;;;;;;;5060666;28;20060;-49
2023/10/06 01:50:48;;;;;;;4.07;3.55;;;;;;;;;;5057242;28;20048;-50
2023/10/06 01:53:18;;;;;;;4.47;2.28;;;;;;;;;;5055781;28;20124;-48
2023/10/06 01:55:49;;;;;;;4.43;2.65;;;;;;;;;;5056339;28;20047;-48
2023/10/06 01:58:15;;;;;;;5.43;2.83;;;;;;;;;;5059021;28;20444;-50
2023/10/06 02:00:40;;;;;;;5.53;2.83;;;;;;;;;;5059760;28;20031;-49
2023/10/06 02:03:12;;;;;;;4.68;2.70;;;;;;;;;;5047057;28;20045;-48
2023/10/06 02:05:38;;;;;;;4.30;2.63;;;;;;;;;;5056809;28;20770;-51
2023/10/06 02:08:14;;;;;;;3.83;2.55;;;;;;;;;;5056774;28;20079;-50
2023/10/06 02:10:42;;;;;;;4.22;2.90;;;;;;;;;;5059882;28;20053;-46
2023/10/06 02:13:08;;;;;;;4.55;2.55;;;;;;;;;;5055845;28;20538;-48
2023/10/06 02:15:34;;;;;;;4.93;3.42;;;;;;;;;;5059698;28;20052;-48
2023/10/06 02:17:59;;;;;;;4.43;2.58;;;;;;;;;;5057766;28;20116;-53
2023/10/06 02:23:00;;;;;;;6.43;3.53;;;;;;;;;;5059208;28;20542;-50
2023/10/06 02:25:26;;;;;;;4.18;2.88;;;;;;;;;;5058341;28;20024;-51
2023/10/06 02:27:53;;;;;;;6.05;4.00;;;;;;;;;;5057972;28;20033;-52
2023/10/06 02:30:33;;;;;;;5.25;4.45;;;;;;;;;;5059005;28;20025;-50
2023/10/06 02:33:00;;;;;;;4.00;3.33;;;;;;;;;;5048671;28;20052;-51
2023/10/06 02:35:25;;;;;;;6.75;3.92;;;;;;;;;;5056026;28;20067;-52
2023/10/06 02:37:50;;;;;;;5.80;3.17;;;;;;;;;;5061076;28;20036;-48
2023/10/06 02:40:16;;;;;;;4.97;3.58;;;;;;;;;;5055808;28;20021;-49
2023/10/06 02:42:51;;;;;;;5.47;3.40;;;;;;;;;;5055104;28;20041;-49
2023/10/06 02:45:20;;;;;;;5.38;2.33;;;;;;;;;;5063116;28;20036;-49
2023/10/06 02:47:45;;;;;;;4.90;3.10;;;;;;;;;;5065417;28;20033;-53
2023/10/06 02:50:18;;;;;;;5.15;3.20;;;;;;;;;;5058526;28;20025;-48
2023/10/06 02:52:45;;;;;;;5.47;2.80;;;;;;;;;;5061412;28;20037;-51
2023/10/06 02:55:11;;;;;;;4.25;2.55;;;;;;;;;;5056203;28;20044;-49
2023/10/06 02:57:38;;;;;;;3.53;2.50;;;;;;;;;;5058000;28;20036;-49
2023/10/06 03:02:55;;;;;;;4.22;2.88;;;;;;;;;;5059985;28;20029;-51
2023/10/06 03:05:25;;;;;;;5.97;4.05;;;;;;;;;;5067095;28;20032;-52
2023/10/06 03:07:51;;;;;;;3.05;2.42;;;;;;;;;;5047459;28;20030;-52
2023/10/06 03:10:18;;;;;;;4.72;2.65;;;;;;;;;;5054681;28;20025;-51
2023/10/06 03:12:43;;;;;;;4.63;2.53;;;;;;;;;;5061463;28;20113;-48
2023/10/06 03:15:28;;;;;;;6.35;3.13;;;;;;;;;;5056812;28;20061;-50
2023/10/06 03:17:58;;;;;;;4.35;2.83;;;;;;;;;;5067413;28;20456;-51
2023/10/06 03:20:27;;;;;;;4.30;2.85;;;;;;;;;;5061948;28;20443;-51
2023/10/06 03:22:55;;;;;;;6.03;2.75;;;;;;;;;;5055698;28;20453;-48
2023/10/06 03:25:20;;;;;;;5.28;3.78;;;;;;;;;;5059513;28;20024;-52
2023/10/06 03:27:49;;;;;;;5.95;3.83;;;;;;;;;;5034097;28;20497;-51
2023/10/06 03:30:27;;;;;;;;;;;;;;;;;;5056864;28;20029;-50
2023/10/06 03:32:55;;;;;;;3.70;2.63;;;;;;;;;;5054888;28;19970;-52
2023/10/06 03:35:24;;;;;;;4.95;3.08;;;;;;;;;;5057323;28;20029;-50
2023/10/06 03:37:53;;;;;;;4.32;2.53;;;;;;;;;;5054527;28;20079;-49
2023/10/06 03:40:30;;;;;;;3.67;2.72;;;;;;;;;;5065281;28;20039;-47
2023/10/06 03:42:57;;;;;;;11.98;4.65;;;;;;;;;;5058652;28;20040;-51
2023/10/06 03:45:31;;;;;;;6.07;3.63;;;;;;;;;;5046818;28;20025;-52
2023/10/06 03:48:11;;;;;;;4.35;3.20;;;;;;;;;;5054361;28;20116;-48
2023/10/06 03:50:44;;;;;;;4.95;3.20;;;;;;;;;;5055767;28;20044;-49
2023/10/06 03:53:11;;;;;;;5.90;2.85;;;;;;;;;;5055636;28;20037;-47
2023/10/06 03:55:45;;;;;;;4.15;3.13;;;;;;;;;;5055755;28;20040;-51
2023/10/06 03:58:14;;;;;;;5.18;3.42;;;;;;;;;;5054161;28;20037;-51
2023/10/06 04:00:40;;;;;;;5.45;3.80;;;;;;;;;;5056258;28;20102;-47
2023/10/06 04:03:09;;;;;;;4.88;3.00;;;;;;;;;;5058103;28;20139;-50
2023/10/06 04:05:37;;;;;;;6.45;3.75;;;;;;;;;;5056083;28;20422;-48
2023/10/06 04:08:08;;;;;;;5.85;3.92;;;;;;;;;;5053878;28;20044;-49
2023/10/06 04:10:36;;;;;;;6.18;3.38;;;;;;;;;;5053150;28;20050;-50
2023/10/06 04:13:03;;;;;;;5.70;4.15;;;;;;;;;;5062290;28;20093;-49
2023/10/06 04:15:28;;;;;;;4.55;3.30;;;;;;;;;;5055982;28;20028;-49
2023/10/06 04:17:54;;;;;;;4.78;3.63;;;;;;;;;;5052709;28;20494;-50
2023/10/06 04:20:20;;;;;;;6.43;3.78;;;;;;;;;;5062280;28;20032;-46
2023/10/06 04:22:45;;;;;;;4.18;3.78;;;;;;;;;;5066730;28;20040;-51
2023/10/06 04:25:11;;;;;;;4.38;2.67;;;;;;;;;;5055746;28;20020;-50
2023/10/06 04:27:36;;;;;;;5.82;4.32;;;;;;;;;;5054203;28;20041;-50
2023/10/06 04:30:04;;;;;;;5.43;4.28;;;;;;;;;;5056352;28;20036;-48
2023/10/06 04:32:30;;;;;;;5.40;3.63;;;;;;;;;;5059739;28;20873;-46
2023/10/06 04:34:56;;;;;;;7.10;3.40;;;;;;;;;;5054071;28;20048;-51
2023/10/06 04:37:22;;;;;;;5.13;3.00;;;;;;;;;;5056464;28;20048;-48
2023/10/06 04:39:47;;;;;;;5.97;2.97;;;;;;;;;;5058522;28;20052;-50
2023/10/06 04:42:12;;;;;;;6.28;4.10;;;;;;;;;;5056825;28;20064;-47
2023/10/06 04:44:38;;;;;;;6.93;3.38;;;;;;;;;;5059354;28;20025;-51
2023/10/06 04:47:08;;;;;;;6.13;3.20;;;;;;;;;;5053588;28;20033;-47
2023/10/06 04:49:34;;;;;;;6.85;4.38;;;;;;;;;;5054726;28;20013;-49
2023/10/06 04:52:00;;;;;;;6.63;3.08;;;;;;;;;;5052261;28;20445;-50
2023/10/06 04:54:26;;;;;;;5.57;2.90;;;;;;;;;;5055281;28;20459;-48
2023/10/06 04:56:52;;;;;;;5.15;3.50;;;;;;;;;;5056307;28;20037;-50
2023/10/06 04:59:19;;;;;;;4.53;2.97;;;;;;;;;;5049447;28;20104;-49
2023/10/06 05:01:45;;;;;;;5.47;4.47;;;;;;;;;;5052498;28;20041;-50
2023/10/06 05:04:11;;;;;;;5.22;3.42;;;;;;;;;;5061375;28;20049;-52
2023/10/06 05:06:36;;;;;;;5.57;3.58;;;;;;;;;;5052210;28;20075;-46
2023/10/06 05:09:02;;;;;;;4.90;3.40;;;;;;;;;;5052225;28;20035;-47
2023/10/06 05:11:32;;;;;;;5.75;3.53;;;;;;;;;;5057175;28;20036;-48
2023/10/06 05:13:58;;;;;;;7.05;4.32;;;;;;;;;;5059330;28;20034;-53
2023/10/06 05:16:27;;;;;;;7.95;3.67;;;;;;;;;;5055982;28;20089;-48
2023/10/06 05:18:53;;;;;;;6.25;4.30;;;;;;;;;;5050708;28;20062;-47
2023/10/06 05:21:20;;;;;;;5.90;3.50;;;;;;;;;;5049764;28;20024;-51
2023/10/06 05:23:45;;;;;;;6.80;3.65;;;;;;;;;;5053767;28;20025;-54
2023/10/06 05:26:13;;;;;;;7.35;3.85;;;;;;;;;;5046594;28;20025;-50
2023/10/06 05:28:38;;;;;;;5.20;3.85;;;;;;;;;;5050307;28;20059;-48
2023/10/06 05:31:07;;;;;;;5.57;3.33;;;;;;;;;;5053491;28;20580;-46
2023/10/06 05:33:32;;;;;;;7.22;3.30;;;;;;;;;;5052699;28;20458;-50
2023/10/06 05:35:59;;;;;;;5.65;3.60;;;;;;;;;;5049851;28;20045;-50
2023/10/06 05:38:24;;;;;;;6.43;2.80;;;;;;;;;;5049613;28;20511;-49
2023/10/06 05:40:50;;;;;;;5.95;3.28;;;;;;;;;;5051577;28;20025;-53
2023/10/06 05:43:16;;;;;;;3.20;2.83;;;;;;;;;;5052686;28;20067;-52
2023/10/06 05:45:43;;;;;;;5.43;4.40;;;;;;;;;;5051185;28;20549;-50
2023/10/06 05:48:10;;;;;;;4.65;4.05;;;;;;;;;;5054486;28;20434;-46
2023/10/06 05:50:36;;;;;;;5.40;4.90;;;;;;;;;;5061704;28;20063;-48
2023/10/06 05:53:07;;;;;;;6.78;4.05;;;;;;;;;;5052145;28;20407;-49
2023/10/06 05:55:38;;;;;;;4.97;3.95;;;;;;;;;;5056710;28;20021;-51
2023/10/06 05:58:08;;;;;;;4.32;3.30;;;;;;;;;;5054306;28;20037;-50
2023/10/06 06:00:35;;;;;;;4.93;2.83;;;;;;;;;;5073095;28;20029;-50
2023/10/06 06:03:13;;;;;;;5.50;3.90;;;;;;;;;;5058082;28;20037;-51
2023/10/06 06:05:41;;;;;;;4.60;3.40;;;;;;;;;;5048281;28;20135;-50
2023/10/06 06:08:10;;;;;;;5.13;3.33;;;;;;;;;;5058630;28;20041;-53
2023/10/06 06:10:37;;;;;;;5.70;2.97;;;;;;;;;;5049961;28;20052;-51
2023/10/06 06:13:03;;;;;;;4.50;3.30;;;;;;;;;;5052636;28;20041;-49
2023/10/06 06:15:29;;;;;;;4.82;3.08;;;;;;;;;;5071863;28;20123;-51
2023/10/06 06:17:58;;;;;;;4.07;2.65;;;;;;;;;;5059843;28;20102;-50
2023/10/06 06:20:24;;;;;;;6.15;3.50;;;;;;;;;;5054630;28;20390;-53
2023/10/06 06:23:12;;;;;;;6.55;3.15;;;;;;;;;;5050753;28;20121;-53
2023/10/06 06:25:39;;;;;;;5.78;3.15;;;;;;;;;;5052090;28;20457;-53
2023/10/06 06:28:05;;;;;;;7.28;5.20;;;;;;;;;;5060569;28;20120;-51
2023/10/06 06:30:39;;;;;;;5.60;3.08;;;;;;;;;;5036207;28;20067;-52
2023/10/06 06:33:08;;;;;;;6.45;3.92;;;;;;;;;;5051760;28;20541;-51
2023/10/06 06:35:35;;;;;;;6.80;4.20;;;;;;;;;;5046389;28;20029;-53
2023/10/06 06:38:01;;;;;;;5.28;3.50;;;;;;;;;;5050674;28;20044;-47
2023/10/06 06:40:31;;;;;;;7.20;4.28;;;;;;;;;;5060126;28;20028;-51
2023/10/06 06:43:00;;;;;;;5.65;2.95;;;;;;;;;;5050533;28;20044;-51
2023/10/06 06:45:26;;;;;;;6.05;3.17;;;;;;;;;;5054913;28;20029;-52
2023/10/06 06:47:53;;;;;;;6.50;4.45;;;;;;;;;;5052504;28;20087;-49
2023/10/06 06:50:20;;;;;;;5.85;4.82;;;;;;;;;;5055271;28;20107;-50
2023/10/06 06:52:46;;;;;;;5.72;3.92;;;;;;;;;;5052014;28;20028;-49
2023/10/06 06:55:12;;;;;;;7.10;6.45;;;;;;;;;;5057313;28;20036;-52
2023/10/06 06:57:46;;;;;;;5.75;4.30;;;;;;;;;;5053033;28;20044;-51
2023/10/06 07:00:16;;;;;;;7.05;3.92;;;;;;;;;;5058947;28;20498;-50
2023/10/06 07:02:46;;;;;;;11.57;8.80;;;;;;;;;;5057202;28;20064;-47
2023/10/06 07:05:12;;;;;;;4.70;3.72;;;;;;;;;;5056656;28;20383;-50
2023/10/06 07:07:40;;;;;;;5.53;3.95;;;;;;;;;;5060758;28;20091;-49
2023/10/06 07:10:08;;;;;;;7.07;4.40;;;;;;;;;;5051273;28;20033;-52
2023/10/06 07:12:34;;;;;;;5.88;4.78;;;;;;;;;;5032533;28;20059;-50
2023/10/06 07:15:01;;;;;;;6.80;4.38;;;;;;;;;;5050781;28;20032;-51
2023/10/06 07:17:26;;;;;;;8.95;4.53;;;;;;;;;;5051804;28;20067;-53
2023/10/06 07:19:52;;;;;;;5.72;4.15;;;;;;;;;;5063910;28;20028;-51
2023/10/06 07:22:18;;;;;;;6.57;4.40;;;;;;;;;;5055705;28;20052;-50
2023/10/06 07:24:44;;;;;;;5.35;4.00;;;;;;;;;;5052495;28;20053;-51
2023/10/06 07:27:09;;;;;;;7.65;5.15;;;;;;;;;;5031951;28;20140;-50
2023/10/06 07:29:34;;;;;;;8.73;6.25;;;;;;;;;;5051673;28;20041;-50
2023/10/06 07:32:00;;;;;;;6.35;4.45;;;;;;;;;;5056059;28;20577;-52
2023/10/06 07:34:27;;;;;;;7.97;5.25;;;;;;;;;;5055745;28;20433;-51
2023/10/06 07:36:53;;;;;;;5.18;3.78;;;;;;;;;;5054231;28;20040;-49
2023/10/06 07:39:20;;;;;;;18.55;6.75;;;;;;;;;;5052227;28;20021;-49
2023/10/06 07:41:46;;;;;;;7.22;5.22;;;;;;;;;;5057111;28;20124;-50
2023/10/06 07:44:12;;;;;;;6.95;5.13;;;;;;;;;;5065588;28;20052;-48
2023/10/06 07:46:37;;;;;;;6.13;4.53;;;;;;;;;;5044778;28;20029;-53
2023/10/06 07:49:04;;;;;;;7.05;3.88;;;;;;;;;;5060106;28;20031;-49
2023/10/06 07:51:33;;;;;;;7.28;4.40;;;;;;;;;;5053890;28;20494;-53
2023/10/06 07:53:59;;;;;;;5.07;4.03;;;;;;;;;;5067778;28;20039;-49
2023/10/06 07:56:26;;;;;;;5.97;3.92;;;;;;;;;;5055773;28;20029;-52
2023/10/06 07:58:53;;;;;;;6.63;4.97;;;;;;;;;;5058560;28;20390;-53
2023/10/06 08:01:19;;;;;;;5.82;4.40;;;;;;;;;;5050154;28;20039;-47
2023/10/06 08:03:45;;;;;;;7.03;4.10;;;;;;;;;;5058857;28;20039;-53
2023/10/06 08:06:11;;;;;;;6.43;4.63;;;;;;;;;;5060090;28;20056;-50
2023/10/06 08:08:38;;;;;;;6.75;4.22;;;;;;;;;;5054257;28;20052;-50
2023/10/06 08:11:07;;;;;;;6.63;4.82;;;;;;;;;;5054347;28;20474;-50
2023/10/06 08:13:33;;;;;;;6.70;4.60;;;;;;;;;;5057702;28;20035;-52
2023/10/06 08:16:00;;;;;;;6.13;5.10;;;;;;;;;;5048334;28;20677;-51
2023/10/06 08:18:29;;;;;;;8.25;4.72;;;;;;;;;;5064156;28;20063;-51
2023/10/06 08:20:56;;;;;;;8.52;5.20;;;;;;;;;;5053975;28;20025;-52
2023/10/06 08:23:21;;;;;;;10.77;6.18;;;;;;;;;;5055983;28;20036;-49
2023/10/06 08:25:46;;;;;;;11.88;7.15;;;;;;;;;;5046552;28;20029;-51
2023/10/06 08:28:12;;;;;;;10.30;7.68;;;;;;;;;;5059133;28;20397;-48
2023/10/06 08:30:38;;;;;;;15.40;7.40;;;;;;;;;;5050257;28;20522;-48
2023/10/06 08:33:08;;;;;;;19.95;8.15;;;;;;;;;;5052893;28;20041;-49
2023/10/06 08:35:34;;;;;;;12.73;7.85;;;;;;;;;;5048172;28;20064;-49
2023/10/06 08:38:00;;;;;;;7.53;5.60;;;;;;;;;;5058188;28;20086;-51
2023/10/06 08:40:29;;;;;;;11.68;7.55;;;;;;;;;;5051886;28;20055;-50
2023/10/06 08:42:56;;;;;;;11.20;5.93;;;;;;;;;;5062631;28;20189;-49
2023/10/06 08:45:24;;;;;;;9.07;5.72;;;;;;;;;;5046628;28;20084;-51
2023/10/06 08:47:52;;;;;;;10.88;6.80;;;;;;;;;;5057976;28;20041;-48
2023/10/06 08:50:22;;;;;;;8.80;6.15;;;;;;;;;;5050530;28;20029;-49
2023/10/06 08:52:52;;;;;;;7.38;5.60;;;;;;;;;;5054751;28;20032;-48
2023/10/06 08:55:30;;;;;;;6.75;6.00;;;;;;;;;;5050279;28;20056;-49
2023/10/06 08:57:58;;;;;;;9.18;5.28;;;;;;;;;;5052966;28;20032;-49
2023/10/06 09:00:24;;;;;;;6.72;5.63;;;;;;;;;;5055870;28;20067;-47
2023/10/06 09:02:54;;;;;;;8.77;7.05;;;;;;;;;;5052310;28;20029;-51
2023/10/06 09:05:21;;;;;;;7.57;6.63;;;;;;;;;;5059951;28;20117;-52
2023/10/06 09:08:04;;;;;;;7.75;5.22;;;;;;;;;;5066184;28;20574;-52
2023/10/06 09:10:41;;;;;;;7.45;5.05;;;;;;;;;;5047043;28;20027;-50
2023/10/06 09:13:12;;;;;;;10.00;6.80;;;;;;;;;;5056537;28;20571;-51
2023/10/06 09:15:40;;;;;;;9.10;6.47;;;;;;;;;;5053965;28;20021;-49
2023/10/06 09:18:30;;;;;;;8.63;6.25;;;;;;;;;;5059615;28;20051;-48
2023/10/06 09:21:09;;;;;;;10.23;7.75;;;;;;;;;;5056007;28;20017;-47
2023/10/06 09:23:43;;;;;;;10.40;6.13;;;;;;;;;;5053289;28;20029;-47
2023/10/06 09:26:15;;;;;;;10.13;6.75;;;;;;;;;;5061081;28;20029;-51
2023/10/06 09:28:51;;;;;;;9.48;6.18;;;;;;;;;;5065063;28;20041;-48
2023/10/06 09:31:33;;;;;;;8.85;5.25;;;;;;;;;;5058135;28;20035;-52
2023/10/06 09:33:59;;;;;;;8.00;5.95;;;;;;;;;;5056621;28;20029;-49
2023/10/06 09:36:29;;;;;;;10.18;6.30;;;;;;;;;;5058531;28;20021;-49
2023/10/06 09:38:59;;;;;;;10.80;7.75;;;;;;;;;;5051608;28;20033;-50
2023/10/06 09:41:32;;;;;;;6.50;5.60;;;;;;;;;;5054135;28;20043;-47
2023/10/06 09:44:09;;;;;;;6.65;4.20;;;;;;;;;;5048849;28;20025;-50
2023/10/06 09:46:35;;;;;;;4.97;3.17;;;;;;;;;;5062016;28;20718;-47
2023/10/06 09:49:05;;;;;;;7.30;4.10;;;;;;;;;;5059560;28;20025;-50
2023/10/06 09:51:33;;;;;;;7.40;4.47;;;;;;;;;;5058429;28;20021;-47
2023/10/06 09:53:58;;;;;;;7.00;3.53;;;;;;;;;;5057077;28;20028;-47
2023/10/06 09:56:24;;;;;;;8.00;4.80;;;;;;;;;;5060148;28;20029;-48
2023/10/06 09:58:53;;;;;;;6.97;4.20;;;;;;;;;;5058319;28;20024;-53
2023/10/06 10:01:24;;;;;;;7.43;5.88;;;;;;;;;;5062558;28;20025;-49
2023/10/06 10:03:52;;;;;;;6.45;5.20;;;;;;;;;;5056136;28;20027;-48
2023/10/06 10:06:21;;;;;;;8.35;4.75;;;;;;;;;;5067503;28;20036;-49
2023/10/06 10:08:47;;;;;;;7.38;4.97;;;;;;;;;;5065684;28;20067;-47
2023/10/06 10:11:28;;;;;;;6.20;4.10;;;;;;;;;;5063503;28;20035;-50
2023/10/06 10:14:36;;;;;;;5.93;3.80;;;;;;;;;;5055912;28;20094;-51
2023/10/06 10:17:21;;;;;;;4.85;4.32;;;;;;;;;;5054786;28;20086;-50
2023/10/06 10:19:47;;;;;;;7.18;5.18;;;;;;;;;;5056735;28;20025;-49
2023/10/06 10:22:13;;;;;;;5.05;4.45;;;;;;;;;;5054239;28;20394;-51
2023/10/06 10:24:39;;;;;;;6.03;4.30;;;;;;;;;;5064155;28;20020;-50
2023/10/06 10:27:18;;;;;;;6.53;5.07;;;;;;;;;;5057977;28;20033;-51
2023/10/06 10:29:44;;;;;;;5.32;3.63;;;;;;;;;;5057068;28;20068;-49
2023/10/06 10:32:23;;;;;;;6.22;4.90;;;;;;;;;;5056991;28;20032;-51
2023/10/06 10:35:12;;;;;;;6.15;4.43;;;;;;;;;;5053464;28;20055;-49
2023/10/06 10:38:02;;;;;;;7.47;4.90;;;;;;;;;;5057083;28;20116;-52
2023/10/06 10:40:29;;;;;;;4.93;4.50;;;;;;;;;;5051032;28;20102;-51
2023/10/06 10:43:02;;;;;;;8.48;4.35;;;;;;;;;;5055242;28;20060;-54
2023/10/06 10:45:43;;;;;;;7.63;4.93;;;;;;;;;;5064396;28;20052;-51
2023/10/06 10:48:13;;;;;;;10.55;6.10;;;;;;;;;;5056304;28;20452;-49
2023/10/06 10:50:55;;;;;;;6.35;5.20;;;;;;;;;;5057412;28;20044;-52
2023/10/06 10:53:21;;;;;;;8.88;4.57;;;;;;;;;;5050608;28;20041;-52
2023/10/06 10:55:47;;;;;;;8.07;4.18;;;;;;;;;;5058167;28;20036;-53
2023/10/06 10:58:44;;;;;;;7.78;4.45;;;;;;;;;;5058952;28;20075;-50
2023/10/06 11:01:36;;;;;;;5.18;4.30;;;;;;;;;;5049216;28;20388;-53
2023/10/06 11:04:13;;;;;;;5.55;4.75;;;;;;;;;;5051710;28;20049;-56
2023/10/06 11:06:49;;;;;;;7.65;4.70;;;;;;;;;;5047787;28;20086;-48
2023/10/06 11:09:40;;;;;;;8.65;4.18;;;;;;;;;;5047416;28;20029;-50
2023/10/06 11:12:18;;;;;;;6.10;5.50;;;;;;;;;;5048599;28;20041;-50
2023/10/06 11:14:45;;;;;;;6.28;5.68;;;;;;;;;;5048218;28;20021;-50
2023/10/06 11:17:12;;;;;;;5.03;4.50;;;;;;;;;;5056920;28;20110;-48
2023/10/06 11:19:39;;;;;;;7.63;5.55;;;;;;;;;;5053121;28;20044;-48
2023/10/06 11:22:13;;;;;;;6.65;6.00;;;;;;;;;;5053715;28;20068;-48
2023/10/06 11:24:39;;;;;;;7.82;4.60;;;;;;;;;;5054314;28;20147;-48
2023/10/06 11:27:21;;;;;;;6.57;4.30;;;;;;;;;;5058156;28;20499;-50
2023/10/06 11:29:47;;;;;;;5.57;4.22;;;;;;;;;;5057420;28;20029;-51
2023/10/06 11:32:13;;;;;;;6.07;4.68;;;;;;;;;;5051595;28;20446;-50
2023/10/06 11:34:43;;;;;;;5.97;5.38;;;;;;;;;;5055222;28;20124;-48
2023/10/06 11:37:09;;;;;;;8.52;5.15;;;;;;;;;;5057093;28;20044;-48
2023/10/06 11:39:35;;;;;;;6.05;4.82;;;;;;;;;;5055449;28;20028;-50
2023/10/06 11:42:29;;;;;;;4.95;4.45;;;;;;;;;;5054820;28;20041;-52
2023/10/06 11:44:59;;;;;;;4.60;3.97;;;;;;;;;;5056119;28;20021;-48
2023/10/06 11:47:27;;;;;;;5.85;3.78;;;;;;;;;;5054081;28;20076;-46
2023/10/06 11:49:53;;;;;;;7.72;5.45;;;;;;;;;;5053886;28;20083;-45
2023/10/06 11:52:19;;;;;;;6.57;4.93;;;;;;;;;;5053044;28;20072;-46
2023/10/06 11:54:46;;;;;;;8.48;5.53;;;;;;;;;;5054537;28;20052;-50
2023/10/06 11:57:13;;;;;;;6.28;4.70;;;;;;;;;;5059693;28;20451;-51
2023/10/06 11:59:50;;;;;;;6.30;5.65;;;;;;;;;;5060282;28;20024;-46
2023/10/06 12:02:16;;;;;;;6.00;4.57;;;;;;;;;;5053650;28;20065;-48
2023/10/06 12:04:42;;;;;;;5.22;4.25;;;;;;;;;;5058582;28;20029;-47
2023/10/06 12:07:30;;;;;;;7.43;6.03;;;;;;;;;;5056514;28;20041;-50
2023/10/06 12:10:03;;;;;;;4.78;4.25;;;;;;;;;;5054529;28;20036;-47
2023/10/06 12:12:29;;;;;;;7.20;4.65;;;;;;;;;;5058921;28;20048;-50
2023/10/06 12:14:56;;;;;;;9.68;4.55;;;;;;;;;;5054292;28;20029;-52
2023/10/06 12:17:23;;;;;;;8.27;4.85;;;;;;;;;;5051601;28;20029;-50
2023/10/06 12:19:49;;;;;;;8.57;5.38;;;;;;;;;;5055482;28;20462;-47
2023/10/06 12:22:14;;;;;;;5.95;4.88;;;;;;;;;;5055708;28;20068;-47
2023/10/06 12:24:40;;;;;;;7.82;4.85;;;;;;;;;;5056119;28;20032;-47
2023/10/06 12:27:05;;;;;;;4.88;4.22;;;;;;;;;;5065714;28;20051;-50
2023/10/06 12:29:31;;;;;;;5.82;3.78;;;;;;;;;;5052909;28;20036;-46
2023/10/06 12:31:57;;;;;;;6.10;3.88;;;;;;;;;;5053412;28;20041;-46
2023/10/06 12:34:23;;;;;;;6.43;4.13;;;;;;;;;;5060787;28;20024;-52
2023/10/06 12:36:51;;;;;;;6.03;4.38;;;;;;;;;;5055197;28;20681;-48
2023/10/06 12:39:30;;;;;;;5.22;4.45;;;;;;;;;;5053906;28;20048;-51
2023/10/06 12:41:57;;;;;;;4.65;3.90;;;;;;;;;;5053110;28;20482;-52
2023/10/06 12:44:23;;;;;;;6.32;4.72;;;;;;;;;;5056324;28;20448;-48
2023/10/06 12:46:48;;;;;;;5.47;4.35;;;;;;;;;;5060213;28;20033;-48
2023/10/06 12:49:18;;;;;;;7.07;5.55;;;;;;;;;;5056163;28;20061;-50
2023/10/06 12:51:44;;;;;;;6.18;4.45;;;;;;;;;;5056523;28;20159;-49
2023/10/06 12:54:09;;;;;;;6.38;4.32;;;;;;;;;;5062562;28;20060;-49
2023/10/06 12:56:35;;;;;;;5.60;4.47;;;;;;;;;;5057662;28;20076;-49
2023/10/06 12:59:00;;;;;;;6.18;4.32;;;;;;;;;;5060160;28;20033;-46
2023/10/06 13:01:30;;;;;;;6.72;3.97;;;;;;;;;;5062957;28;20529;-51
2023/10/06 13:03:56;;;;;;;5.35;3.97;;;;;;;;;;5057630;28;20163;-46
2023/10/06 13:06:22;;;;;;;6.82;5.43;;;;;;;;;;5064960;28;20091;-48
2023/10/06 13:08:49;;;;;;;6.68;4.35;;;;;;;;;;5060150;28;20033;-47
2023/10/06 13:11:18;;;;;;;7.28;4.70;;;;;;;;;;5063740;28;20052;-44
2023/10/06 13:13:49;;;;;;;7.57;4.47;;;;;;;;;;5054184;28;20052;-48
2023/10/06 13:16:16;;;;;;;4.53;3.70;;;;;;;;;;5061292;28;20033;-49
2023/10/06 13:18:42;;;;;;;5.28;3.97;;;;;;;;;;5058478;28;20024;-47
2023/10/06 13:21:07;;;;;;;8.60;5.55;;;;;;;;;;5058125;28;20085;-48
2023/10/06 13:23:36;;;;;;;6.88;4.20;;;;;;;;;;5056155;28;20037;-47
2023/10/06 13:26:02;;;;;;;4.40;3.90;;;;;;;;;;5062678;28;20028;-48
2023/10/06 13:28:28;;;;;;;4.95;4.45;;;;;;;;;;5049173;28;20087;-50
2023/10/06 13:30:54;;;;;;;6.70;4.03;;;;;;;;;;5051964;28;20116;-49
2023/10/06 13:33:20;;;;;;;6.60;3.63;;;;;;;;;;5050611;28;20056;-50
2023/10/06 13:35:47;;;;;;;4.90;4.03;;;;;;;;;;5047718;28;20036;-49
2023/10/06 13:38:16;;;;;;;4.80;3.60;;;;;;;;;;5060061;28;20029;-51
2023/10/06 13:40:44;;;;;;;6.68;4.22;;;;;;;;;;5058381;28;20029;-49
2023/10/06 13:43:11;;;;;;;5.55;4.13;;;;;;;;;;5047714;28;20505;-51
2023/10/06 13:45:45;;;;;;;5.25;4.65;;;;;;;;;;5061189;28;20037;-50
2023/10/06 13:48:12;;;;;;;;;;;;;;;;;;5059136;28;20033;-49
2023/10/06 13:50:39;;;;;;;5.38;4.47;;;;;;;;;;5060354;28;20536;-50
2023/10/06 13:53:04;;;;;;;6.70;4.75;;;;;;;;;;5057171;28;20044;-52
2023/10/06 13:55:30;;;;;;;8.98;4.32;;;;;;;;;;5054669;28;20100;-53
2023/10/06 13:58:01;;;;;;;5.32;4.50;;;;;;;;;;5053385;28;20053;-48
2023/10/06 14:00:29;;;;;;;4.93;4.05;;;;;;;;;;5057079;28;20394;-51
2023/10/06 14:03:15;;;;;;;;;;;;;;;;;;5061599;28;20032;-52
2023/10/06 14:05:41;;;;;;;4.63;3.95;;;;;;;;;;5055989;28;19974;-52
2023/10/06 14:08:13;;;;;;;5.15;4.30;;;;;;;;;;5064173;28;20565;-51
2023/10/06 14:10:39;;;;;;;6.38;3.72;;;;;;;;;;5054886;28;20471;-51
2023/10/06 14:15:41;;;;;;;5.00;3.28;;;;;;;;;;5056625;28;20025;-53
2023/10/06 14:18:14;;;;;;;7.60;4.18;;;;;;;;;;5062977;28;20044;-50
2023/10/06 14:20:42;;;;;;;7.07;3.90;;;;;;;;;;5058829;28;20021;-50
2023/10/06 14:23:14;;;;;;;6.53;4.85;;;;;;;;;;5062648;28;20494;-47
2023/10/06 14:25:41;;;;;;;5.78;3.38;;;;;;;;;;5057256;28;20021;-49
2023/10/06 14:28:09;;;;;;;5.93;4.22;;;;;;;;;;5055135;28;20043;-54
2023/10/06 14:30:41;;;;;;;7.13;4.75;;;;;;;;;;5051026;28;20025;-49
2023/10/06 14:46:49;;;;;;;8.00;5.50;;;;;;;;;;5039268;28;20056;-53
2023/10/06 14:49:29;;;;;;;5.25;3.50;;;;;;;;;;5060126;28;20033;-49
2023/10/06 14:51:56;;;;;;;6.05;4.50;;;;;;;;;;5055454;28;20040;-53
2023/10/06 14:54:25;;;;;;;5.22;3.55;;;;;;;;;;5053747;28;20446;-47
2023/10/06 14:56:53;;;;;;;5.22;3.42;;;;;;;;;;5061065;28;20058;-47
2023/10/06 14:59:21;;;;;;;7.30;5.28;;;;;;;;;;5046563;28;20018;-48
2023/10/06 15:01:48;;;;;;;6.13;3.63;;;;;;;;;;5057689;28;20044;-48
2023/10/06 15:04:13;;;;;;;6.68;4.22;;;;;;;;;;5055066;28;20075;-50
2023/10/06 15:06:39;;;;;;;5.15;3.78;;;;;;;;;;5049852;28;20045;-51
2023/10/06 15:09:08;;;;;;;4.43;3.63;;;;;;;;;;5045832;28;20033;-50
2023/10/06 15:11:40;;;;;;;5.97;4.50;;;;;;;;;;5054181;28;20052;-48
2023/10/06 15:14:09;;;;;;;5.18;3.58;;;;;;;;;;5046927;28;20029;-47
2023/10/06 15:16:35;;;;;;;5.85;4.28;;;;;;;;;;5059285;28;20041;-51
2023/10/06 15:19:01;;;;;;;4.20;3.75;;;;;;;;;;5052240;28;20112;-48
2023/10/06 15:21:26;;;;;;;6.50;3.47;;;;;;;;;;5053551;28;20041;-50